Time;durP1;ratioP1;P1;durP2;ratioP2;P2;SDS_P1;SDS_P2;PMS_P1;PMS_P2;Temp;Humidity;BMP_temperature;BMP_pressure;BME280_temperature;BME280_humidity;BME280_pressure;Samples;Min_cycle;Max_cycle;Signal;HPM_P1;HPM_P2
2021/08/05 00:01:11;;;;;;;;;;;23.10;55.70;;;;;;492654;238;1160;-69
2021/08/05 00:03:12;;;;;;;;;;;23.10;55.70;;;;;;492739;241;1069;-69
2021/08/05 00:05:14;;;;;;;;;;;23.20;55.80;;;;;;492728;241;1090;-69
2021/08/05 00:07:15;;;;;;;;;;;23.10;55.80;;;;;;492651;241;1049;-69
2021/08/05 00:09:16;;;;;;;;;;;23.10;55.70;;;;;;492726;241;1285;-69
2021/08/05 00:11:18;;;;;;;;;;;23.20;55.70;;;;;;492682;241;1282;-69
2021/08/05 00:13:19;;;;;;;;;;;23.10;55.70;;;;;;492686;241;1048;-69
2021/08/05 00:15:20;;;;;;;;;;;23.20;55.70;;;;;;492678;241;996;-69
2021/08/05 00:17:22;;;;;;;;;;;23.30;55.30;;;;;;492678;241;2187;-69
2021/08/05 00:19:23;;;;;;;;;;;23.20;55.40;;;;;;492753;241;1141;-70
2021/08/05 00:21:24;;;;;;;;;;;23.20;55.50;;;;;;492679;238;1221;-70
2021/08/05 00:23:26;;;;;;;;;;;23.20;55.70;;;;;;492730;241;1076;-69
2021/08/05 00:25:27;;;;;;;;;;;23.10;55.70;;;;;;492735;241;1044;-69
2021/08/05 00:27:28;;;;;;;;;;;23.10;55.70;;;;;;492648;241;1221;-69
2021/08/05 00:29:30;;;;;;;;;;;23.20;55.80;;;;;;492690;241;1221;-70
2021/08/05 00:31:31;;;;;;;;;;;23.10;55.70;;;;;;492656;241;1223;-69
2021/08/05 00:33:32;;;;;;;;;;;23.10;55.70;;;;;;492698;241;1131;-69
2021/08/05 00:35:34;;;;;;;;;;;23.10;55.70;;;;;;492682;241;949;-70
2021/08/05 00:37:35;;;;;;;;;;;23.10;55.80;;;;;;492684;241;2183;-69
2021/08/05 00:39:36;;;;;;;;;;;23.10;55.80;;;;;;492675;241;1001;-70
2021/08/05 00:41:38;;;;;;;;;;;23.20;55.70;;;;;;492675;238;1210;-70
2021/08/05 00:43:39;;;;;;;;;;;23.10;55.80;;;;;;492700;241;1127;-69
2021/08/05 00:45:40;;;;;;;;;;;23.10;55.70;;;;;;492795;241;1039;-69
2021/08/05 00:47:42;;;;;;;;;;;23.10;55.80;;;;;;492649;241;1120;-69
2021/08/05 00:49:43;;;;;;;;;;;23.10;55.80;;;;;;492736;241;1048;-69
2021/08/05 00:51:44;;;;;;;;;;;23.10;55.90;;;;;;492694;241;1367;-69
2021/08/05 00:53:46;;;;;;;;;;;23.00;55.80;;;;;;492734;241;987;-69
2021/08/05 00:55:47;;;;;;;;;;;23.10;55.90;;;;;;492747;241;1092;-70
2021/08/05 00:57:48;;;;;;;;;;;23.10;55.80;;;;;;492708;241;2159;-70
2021/08/05 00:59:49;;;;;;;;;;;23.10;55.80;;;;;;492750;241;1047;-69
2021/08/05 01:01:51;;;;;;;;;;;23.20;55.70;;;;;;492614;238;1204;-69
2021/08/05 01:03:52;;;;;;;;;;;23.10;55.80;;;;;;492675;241;949;-69
2021/08/05 01:05:53;;;;;;;;;;;23.10;56.00;;;;;;492765;241;1085;-69
2021/08/05 01:07:55;;;;;;;;;;;23.10;56.00;;;;;;492725;241;1054;-69
2021/08/05 01:09:56;;;;;;;;;;;23.10;56.00;;;;;;492777;241;1017;-69
2021/08/05 01:11:58;;;;;;;;;;;23.10;56.00;;;;;;492637;241;1244;-69
2021/08/05 01:13:59;;;;;;;;;;;23.10;55.90;;;;;;492664;241;1150;-70
2021/08/05 01:16:00;;;;;;;;;;;23.10;55.80;;;;;;492649;241;1210;-69
2021/08/05 01:18:02;;;;;;;;;;;23.10;55.80;;;;;;492723;241;2128;-69
2021/08/05 01:20:03;;;;;;;;;;;23.10;55.90;;;;;;492693;241;997;-69
2021/08/05 01:22:04;;;;;;;;;;;23.10;55.90;;;;;;492608;241;1280;-69
2021/08/05 01:24:06;;;;;;;;;;;23.10;55.90;;;;;;492656;241;1144;-69
2021/08/05 01:26:07;;;;;;;;;;;23.10;55.80;;;;;;492681;241;1177;-69
2021/08/05 01:28:08;;;;;;;;;;;23.20;55.70;;;;;;492657;241;1184;-69
2021/08/05 01:30:10;;;;;;;;;;;23.10;55.80;;;;;;492766;241;1160;-69
2021/08/05 01:32:11;;;;;;;;;;;23.20;55.70;;;;;;492693;241;1084;-69
2021/08/05 01:34:12;;;;;;;;;;;23.10;55.70;;;;;;492733;241;1070;-69
2021/08/05 01:36:14;;;;;;;;;;;23.10;55.70;;;;;;492647;241;1125;-69
2021/08/05 01:38:15;;;;;;;;;;;23.10;55.80;;;;;;492732;241;2186;-69
2021/08/05 01:40:17;;;;;;;;;;;23.00;55.90;;;;;;492718;241;1018;-70
2021/08/05 01:42:18;;;;;;;;;;;23.10;55.70;;;;;;492571;241;1271;-69
2021/08/05 01:44:19;;;;;;;;;;;23.00;55.80;;;;;;492806;241;1129;-69
2021/08/05 01:46:20;;;;;;;;;;;23.10;56.00;;;;;;492617;238;1510;-70
2021/08/05 01:48:22;;;;;;;;;;;23.10;56.00;;;;;;492674;241;1073;-70
2021/08/05 01:50:23;;;;;;;;;;;23.10;55.80;;;;;;492645;241;1272;-70
2021/08/05 01:52:24;;;;;;;;;;;23.00;55.80;;;;;;492556;241;1134;-70
2021/08/05 01:54:26;;;;;;;;;;;23.10;55.80;;;;;;492740;241;1121;-69
2021/08/05 01:56:27;;;;;;;;;;;23.10;55.80;;;;;;492661;241;1148;-69
2021/08/05 01:58:28;;;;;;;;;;;23.10;55.80;;;;;;492663;241;2159;-69
2021/08/05 02:00:30;;;;;;;;;;;23.10;55.90;;;;;;492753;241;1212;-69
2021/08/05 02:02:31;;;;;;;;;;;23.00;56.10;;;;;;492642;241;1103;-69
2021/08/05 02:04:32;;;;;;;;;;;23.00;56.10;;;;;;492692;241;958;-69
2021/08/05 02:06:34;;;;;;;;;;;23.00;56.10;;;;;;492699;241;1190;-69
2021/08/05 02:08:35;;;;;;;;;;;23.10;56.00;;;;;;492783;242;1113;-69
2021/08/05 02:10:36;;;;;;;;;;;23.10;55.80;;;;;;492757;241;1012;-69
2021/08/05 02:12:38;;;;;;;;;;;23.00;55.80;;;;;;492605;241;1214;-69
2021/08/05 02:14:39;;;;;;;;;;;23.10;56.00;;;;;;492722;241;1120;-70
2021/08/05 02:16:41;;;;;;;;;;;23.20;55.50;;;;;;492703;241;959;-69
2021/08/05 02:18:45;;;;;;;;;;;23.10;55.70;;;;;;492798;241;2232;-69
2021/08/05 02:20:45;;;;;;;;;;;23.00;55.80;;;;;;492684;241;1458;-69
2021/08/05 02:22:47;;;;;;;;;;;23.00;56.00;;;;;;492646;241;1129;-69
2021/08/05 02:24:48;;;;;;;;;;;23.00;56.10;;;;;;492673;241;1455;-70
2021/08/05 02:26:49;;;;;;;;;;;23.00;56.10;;;;;;492719;241;1159;-69
2021/08/05 02:28:50;;;;;;;;;;;23.00;56.00;;;;;;492729;241;1462;-70
2021/08/05 02:30:52;;;;;;;;;;;23.00;56.00;;;;;;492742;241;996;-70
2021/08/05 02:32:53;;;;;;;;;;;23.00;56.10;;;;;;492727;241;1187;-69
2021/08/05 02:34:54;;;;;;;;;;;23.00;56.10;;;;;;492767;241;1004;-69
2021/08/05 02:36:56;;;;;;;;;;;23.00;56.10;;;;;;492657;241;1167;-70
2021/08/05 02:38:57;;;;;;;;;;;22.90;56.10;;;;;;492756;241;2178;-69
2021/08/05 02:40:58;;;;;;;;;;;23.00;56.10;;;;;;492684;241;995;-69
2021/08/05 02:43:00;;;;;;;;;;;22.90;56.10;;;;;;492865;241;1166;-69
2021/08/05 02:45:01;;;;;;;;;;;23.00;56.30;;;;;;492760;241;981;-69
2021/08/05 02:47:02;;;;;;;;;;;23.00;56.10;;;;;;492764;241;1218;-70
2021/08/05 02:49:04;;;;;;;;;;;23.00;55.90;;;;;;492818;241;1013;-70
2021/08/05 02:51:05;;;;;;;;;;;23.10;56.00;;;;;;492724;241;1036;-69
2021/08/05 02:53:09;;;;;;;;;;;23.00;56.10;;;;;;492722;241;949;-69
2021/08/05 02:55:09;;;;;;;;;;;23.00;56.00;;;;;;492766;241;1328;-69
2021/08/05 02:57:11;;;;;;;;;;;23.00;56.20;;;;;;492734;238;1298;-69
2021/08/05 02:59:12;;;;;;;;;;;23.00;56.10;;;;;;492828;241;2202;-70
2021/08/05 03:01:13;;;;;;;;;;;23.10;56.10;;;;;;492726;241;978;-70
2021/08/05 03:03:15;;;;;;;;;;;23.10;56.00;;;;;;492700;241;940;-69
2021/08/05 03:05:16;;;;;;;;;;;23.10;56.00;;;;;;492699;241;952;-69
2021/08/05 03:07:17;;;;;;;;;;;23.00;56.10;;;;;;492741;241;962;-69
2021/08/05 03:09:19;;;;;;;;;;;23.10;56.10;;;;;;492772;241;1028;-70
2021/08/05 03:11:20;;;;;;;;;;;23.00;56.00;;;;;;492709;241;1117;-69
2021/08/05 03:13:21;;;;;;;;;;;23.00;56.20;;;;;;492743;241;1322;-70
2021/08/05 03:15:23;;;;;;;;;;;23.10;56.10;;;;;;492781;241;1213;-69
2021/08/05 03:17:24;;;;;;;;;;;23.10;55.90;;;;;;492676;241;976;-69
2021/08/05 03:19:25;;;;;;;;;;;23.00;56.30;;;;;;492804;241;2139;-70
2021/08/05 03:21:27;;;;;;;;;;;22.90;56.50;;;;;;492731;241;999;-70
2021/08/05 03:23:28;;;;;;;;;;;22.90;56.60;;;;;;492809;241;1174;-70
2021/08/05 03:25:29;;;;;;;;;;;22.90;56.60;;;;;;492781;241;960;-69
2021/08/05 03:27:31;;;;;;;;;;;23.00;56.40;;;;;;492689;241;1147;-69
2021/08/05 03:29:32;;;;;;;;;;;22.90;56.40;;;;;;492717;241;1503;-69
2021/08/05 03:31:33;;;;;;;;;;;22.90;56.50;;;;;;492676;241;1129;-69
2021/08/05 03:33:35;;;;;;;;;;;22.90;56.50;;;;;;492712;241;1256;-70
2021/08/05 03:35:36;;;;;;;;;;;22.90;56.50;;;;;;492776;241;978;-70
2021/08/05 03:37:37;;;;;;;;;;;22.90;56.50;;;;;;492670;241;1161;-69
2021/08/05 03:39:38;;;;;;;;;;;22.90;56.50;;;;;;492832;241;2182;-69
2021/08/05 03:41:40;;;;;;;;;;;22.90;56.40;;;;;;492674;241;1139;-69
2021/08/05 03:43:41;;;;;;;;;;;22.90;56.30;;;;;;492766;241;1196;-69
2021/08/05 03:45:42;;;;;;;;;;;23.00;56.30;;;;;;492784;241;1084;-69
2021/08/05 03:47:44;;;;;;;;;;;22.90;56.40;;;;;;492751;241;1023;-69
2021/08/05 03:49:45;;;;;;;;;;;22.90;56.40;;;;;;492828;241;1083;-69
2021/08/05 03:51:47;;;;;;;;;;;23.00;56.40;;;;;;492708;241;1185;-69
2021/08/05 03:53:48;;;;;;;;;;;22.90;56.40;;;;;;492795;241;980;-69
2021/08/05 03:55:51;;;;;;;;;;;23.00;56.40;;;;;;492779;241;1123;-69
2021/08/05 03:57:50;;;;;;;;;;;22.90;56.40;;;;;;492629;242;1404;-69
2021/08/05 03:59:52;;;;;;;;;;;22.90;56.40;;;;;;492840;241;2171;-70
2021/08/05 04:01:53;;;;;;;;;;;22.90;56.50;;;;;;492725;241;1229;-69
2021/08/05 04:03:55;;;;;;;;;;;22.90;56.40;;;;;;492768;241;969;-69
2021/08/05 04:05:56;;;;;;;;;;;22.90;56.50;;;;;;492721;241;1297;-69
2021/08/05 04:07:57;;;;;;;;;;;22.90;56.40;;;;;;492760;241;1085;-69
2021/08/05 04:09:59;;;;;;;;;;;23.00;56.40;;;;;;492800;241;1079;-70
2021/08/05 04:12:00;;;;;;;;;;;23.00;56.40;;;;;;492716;241;1212;-69
2021/08/05 04:14:01;;;;;;;;;;;22.90;56.40;;;;;;492806;241;1186;-69
2021/08/05 04:16:03;;;;;;;;;;;23.00;56.40;;;;;;492720;241;1352;-69
2021/08/05 04:18:04;;;;;;;;;;;23.00;56.10;;;;;;492788;241;1047;-69
2021/08/05 04:20:05;;;;;;;;;;;23.00;56.30;;;;;;492868;241;2176;-69
2021/08/05 04:22:07;;;;;;;;;;;23.00;56.40;;;;;;492655;241;1119;-69
2021/08/05 04:24:08;;;;;;;;;;;23.00;56.50;;;;;;492728;241;1211;-69
2021/08/05 04:26:09;;;;;;;;;;;22.90;56.40;;;;;;492829;241;1051;-69
2021/08/05 04:28:10;;;;;;;;;;;23.00;56.50;;;;;;492768;241;1172;-69
2021/08/05 04:30:12;;;;;;;;;;;22.90;56.60;;;;;;492708;241;1200;-69
2021/08/05 04:32:13;;;;;;;;;;;22.90;56.60;;;;;;492693;241;1402;-69
2021/08/05 04:34:14;;;;;;;;;;;22.90;56.50;;;;;;492743;241;953;-69
2021/08/05 04:36:16;;;;;;;;;;;22.90;56.50;;;;;;492720;241;1149;-69
2021/08/05 04:38:17;;;;;;;;;;;22.90;56.40;;;;;;492555;241;1093;-69
2021/08/05 04:40:18;;;;;;;;;;;22.90;56.50;;;;;;492722;241;2171;-69
2021/08/05 04:42:20;;;;;;;;;;;22.90;56.50;;;;;;492557;241;1153;-69
2021/08/05 04:44:21;;;;;;;;;;;22.90;56.50;;;;;;492711;241;1143;-69
2021/08/05 04:46:22;;;;;;;;;;;22.80;56.60;;;;;;492695;241;1320;-69
2021/08/05 04:48:27;;;;;;;;;;;22.90;56.60;;;;;;492605;241;1130;-69
2021/08/05 04:50:25;;;;;;;;;;;22.90;56.50;;;;;;492535;242;1394;-69
2021/08/05 04:52:26;;;;;;;;;;;22.90;56.40;;;;;;492629;241;1201;-69
2021/08/05 04:54:28;;;;;;;;;;;22.90;56.40;;;;;;492760;241;1054;-69
2021/08/05 04:56:29;;;;;;;;;;;22.90;56.50;;;;;;492739;241;1108;-69
2021/08/05 04:58:30;;;;;;;;;;;22.90;56.50;;;;;;492843;241;2207;-69
2021/08/05 05:00:32;;;;;;;;;;;22.80;56.60;;;;;;492683;241;1176;-69
2021/08/05 05:02:33;;;;;;;;;;;22.80;56.60;;;;;;492762;241;1339;-69
2021/08/05 05:04:34;;;;;;;;;;;22.90;56.60;;;;;;492783;241;1219;-69
2021/08/05 05:06:36;;;;;;;;;;;22.80;56.60;;;;;;492722;241;1221;-69
2021/08/05 05:08:37;;;;;;;;;;;22.80;56.50;;;;;;492807;241;1236;-69
2021/08/05 05:10:38;;;;;;;;;;;22.80;56.70;;;;;;492821;241;958;-69
2021/08/05 05:12:40;;;;;;;;;;;22.80;56.70;;;;;;492741;241;1114;-69
2021/08/05 05:14:41;;;;;;;;;;;22.80;56.60;;;;;;492698;241;1233;-69
2021/08/05 05:16:42;;;;;;;;;;;22.80;56.70;;;;;;492577;241;1197;-69
2021/08/05 05:18:44;;;;;;;;;;;22.80;56.60;;;;;;492670;241;2210;-69
2021/08/05 05:20:45;;;;;;;;;;;22.80;56.60;;;;;;492654;241;1436;-69
2021/08/05 05:22:46;;;;;;;;;;;22.80;56.70;;;;;;492643;241;1141;-69
2021/08/05 05:24:47;;;;;;;;;;;22.80;56.60;;;;;;492641;241;1223;-69
2021/08/05 05:26:49;;;;;;;;;;;22.80;56.60;;;;;;492662;238;1100;-69
2021/08/05 05:28:50;;;;;;;;;;;22.80;56.60;;;;;;492590;241;1124;-69
2021/08/05 05:30:51;;;;;;;;;;;22.80;56.70;;;;;;492590;241;1114;-69
2021/08/05 05:32:53;;;;;;;;;;;22.80;56.70;;;;;;492567;241;1243;-69
2021/08/05 05:34:54;;;;;;;;;;;22.80;56.60;;;;;;492615;241;973;-69
2021/08/05 05:36:55;;;;;;;;;;;22.80;56.70;;;;;;492453;241;1158;-69
2021/08/05 05:38:57;;;;;;;;;;;22.80;56.70;;;;;;492446;241;2188;-69
2021/08/05 05:40:58;;;;;;;;;;;22.80;56.80;;;;;;492441;241;1179;-69
2021/08/05 05:43:00;;;;;;;;;;;22.80;56.70;;;;;;492605;241;1152;-69
2021/08/05 05:45:02;;;;;;;;;;;22.80;56.70;;;;;;492581;241;1140;-69
2021/08/05 05:47:03;;;;;;;;;;;22.90;56.60;;;;;;492537;241;1223;-69
2021/08/05 05:49:04;;;;;;;;;;;22.90;56.60;;;;;;492517;241;1017;-69
2021/08/05 05:51:06;;;;;;;;;;;22.90;56.60;;;;;;492440;241;1491;-69
2021/08/05 05:53:07;;;;;;;;;;;22.80;56.60;;;;;;492525;241;1263;-69
2021/08/05 05:55:08;;;;;;;;;;;22.80;56.70;;;;;;492387;241;1154;-68
2021/08/05 05:57:10;;;;;;;;;;;22.80;56.70;;;;;;492308;241;1330;-69
2021/08/05 05:59:11;;;;;;;;;;;22.80;56.70;;;;;;492158;241;2132;-69
2021/08/05 06:01:12;;;;;;;;;;;22.80;56.80;;;;;;492334;241;1322;-69
2021/08/05 06:03:13;;;;;;;;;;;22.80;56.80;;;;;;492345;241;1071;-69
2021/08/05 06:05:15;;;;;;;;;;;22.80;56.80;;;;;;492518;241;1206;-69
2021/08/05 06:07:16;;;;;;;;;;;22.80;56.80;;;;;;492377;241;1107;-69
2021/08/05 06:09:17;;;;;;;;;;;22.80;56.70;;;;;;492503;241;1062;-69
2021/08/05 06:11:19;;;;;;;;;;;22.90;56.60;;;;;;492488;241;1220;-70
2021/08/05 06:13:20;;;;;;;;;;;22.80;56.70;;;;;;492238;241;1120;-69
2021/08/05 06:15:21;;;;;;;;;;;22.80;56.90;;;;;;492434;241;1216;-69
2021/08/05 06:17:23;;;;;;;;;;;22.80;56.80;;;;;;492313;241;1189;-69
2021/08/05 06:19:24;;;;;;;;;;;22.90;56.60;;;;;;492229;241;2136;-70
2021/08/05 06:21:25;;;;;;;;;;;22.90;56.70;;;;;;492308;238;1222;-70
2021/08/05 06:23:27;;;;;;;;;;;22.80;56.80;;;;;;492233;241;1050;-69
2021/08/05 06:25:28;;;;;;;;;;;22.80;56.80;;;;;;492118;241;1135;-69
2021/08/05 06:27:29;;;;;;;;;;;22.80;56.80;;;;;;492108;241;1122;-69
2021/08/05 06:29:32;;;;;;;;;;;22.80;56.70;;;;;;492027;241;1027;-69
2021/08/05 06:31:32;;;;;;;;;;;22.80;56.80;;;;;;492308;242;1327;-69
2021/08/05 06:33:35;;;;;;;;;;;22.80;56.80;;;;;;492219;241;1017;-69
2021/08/05 06:35:35;;;;;;;;;;;22.80;56.80;;;;;;492026;241;1447;-70
2021/08/05 06:37:36;;;;;;;;;;;22.80;56.80;;;;;;491973;241;1073;-69
2021/08/05 06:39:37;;;;;;;;;;;22.80;56.80;;;;;;492042;241;2188;-70
2021/08/05 06:41:39;;;;;;;;;;;22.80;57.00;;;;;;491876;241;1238;-70
2021/08/05 06:43:40;;;;;;;;;;;22.80;56.90;;;;;;491921;241;1093;-70
2021/08/05 06:45:41;;;;;;;;;;;22.80;56.80;;;;;;491791;241;1171;-70
2021/08/05 06:47:45;;;;;;;;;;;22.80;56.80;;;;;;492181;241;1071;-70
2021/08/05 06:49:44;;;;;;;;;;;22.90;56.60;;;;;;491822;242;1428;-70
2021/08/05 06:51:45;;;;;;;;;;;22.80;56.60;;;;;;491752;241;1148;-70
2021/08/05 06:53:46;;;;;;;;;;;22.80;56.70;;;;;;491920;241;1065;-69
2021/08/05 06:55:48;;;;;;;;;;;22.80;56.80;;;;;;492020;241;1051;-69
2021/08/05 06:57:49;;;;;;;;;;;22.90;56.70;;;;;;491961;241;1080;-69
2021/08/05 06:59:51;;;;;;;;;;;22.80;56.70;;;;;;492103;241;2187;-70
2021/08/05 07:01:52;;;;;;;;;;;22.80;56.80;;;;;;491975;241;1210;-69
2021/08/05 07:03:53;;;;;;;;;;;22.80;56.80;;;;;;491944;241;1052;-70
2021/08/05 07:05:55;;;;;;;;;;;22.80;56.80;;;;;;491942;241;1201;-70
2021/08/05 07:07:56;;;;;;;;;;;22.80;56.90;;;;;;491977;241;1079;-70
2021/08/05 07:09:57;;;;;;;;;;;22.80;56.80;;;;;;491915;241;980;-69
2021/08/05 07:11:58;;;;;;;;;;;22.80;56.80;;;;;;491997;241;1120;-70
2021/08/05 07:14:00;;;;;;;;;;;22.80;56.70;;;;;;491890;241;1058;-70
2021/08/05 07:16:01;;;;;;;;;;;22.80;56.80;;;;;;491929;241;1243;-70
2021/08/05 07:18:02;;;;;;;;;;;22.80;56.80;;;;;;491937;241;1089;-70
2021/08/05 07:20:04;;;;;;;;;;;22.80;56.80;;;;;;491844;241;2187;-70
2021/08/05 07:22:05;;;;;;;;;;;22.80;56.90;;;;;;492155;241;1113;-69
2021/08/05 07:24:06;;;;;;;;;;;22.80;56.70;;;;;;492003;241;1261;-69
2021/08/05 07:26:09;;;;;;;;;;;22.90;56.70;;;;;;492042;238;1196;-70
2021/08/05 07:28:09;;;;;;;;;;;22.90;56.70;;;;;;492217;241;1531;-70
2021/08/05 07:30:10;;;;;;;;;;;22.80;56.70;;;;;;491970;241;1088;-70
2021/08/05 07:32:12;;;;;;;;;;;22.80;56.70;;;;;;491888;241;1178;-69
2021/08/05 07:34:13;;;;;;;;;;;22.80;56.80;;;;;;492003;241;1074;-70
2021/08/05 07:36:14;;;;;;;;;;;22.80;56.70;;;;;;491873;241;1294;-70
2021/08/05 07:38:16;;;;;;;;;;;22.80;56.70;;;;;;491818;241;1135;-69
2021/08/05 07:40:17;;;;;;;;;;;22.80;56.70;;;;;;491685;241;2135;-70
2021/08/05 07:42:19;;;;;;;;;;;22.80;56.70;;;;;;491700;241;1109;-70
2021/08/05 07:44:20;;;;;;;;;;;22.80;56.70;;;;;;491564;241;1104;-69
2021/08/05 07:46:21;;;;;;;;;;;22.80;56.70;;;;;;491881;241;1302;-70
2021/08/05 07:48:23;;;;;;;;;;;22.80;56.70;;;;;;492018;241;1023;-69
2021/08/05 07:50:24;;;;;;;;;;;22.80;56.70;;;;;;491774;241;1038;-69
2021/08/05 07:52:25;;;;;;;;;;;22.80;56.70;;;;;;492196;241;1054;-70
2021/08/05 07:54:26;;;;;;;;;;;22.80;56.70;;;;;;491892;241;1050;-69
2021/08/05 07:56:28;;;;;;;;;;;22.80;56.80;;;;;;491885;241;1323;-66
2021/08/05 07:58:29;;;;;;;;;;;22.80;56.70;;;;;;491821;241;990;-69
2021/08/05 08:00:34;;;;;;;;;;;22.80;56.60;;;;;;491860;241;2184;-69
2021/08/05 08:02:32;;;;;;;;;;;22.80;56.70;;;;;;491789;242;1758;-69
2021/08/05 08:04:33;;;;;;;;;;;22.80;56.70;;;;;;491902;241;980;-70
2021/08/05 08:06:34;;;;;;;;;;;22.80;56.80;;;;;;491929;241;1243;-70
2021/08/05 08:08:36;;;;;;;;;;;22.70;57.00;;;;;;491888;241;985;-70
2021/08/05 08:10:37;;;;;;;;;;;22.80;57.00;;;;;;491815;241;1357;-69
2021/08/05 08:12:38;;;;;;;;;;;22.80;56.90;;;;;;491861;241;1071;-69
2021/08/05 08:14:40;;;;;;;;;;;22.80;56.80;;;;;;491757;241;1129;-70
2021/08/05 08:16:41;;;;;;;;;;;22.80;56.90;;;;;;491806;241;1229;-70
2021/08/05 08:18:42;;;;;;;;;;;22.80;56.80;;;;;;491939;241;1093;-69
2021/08/05 08:20:44;;;;;;;;;;;22.80;56.60;;;;;;491890;241;2195;-69
2021/08/05 08:22:45;;;;;;;;;;;22.90;56.70;;;;;;491878;241;1210;-69
2021/08/05 08:24:46;;;;;;;;;;;22.90;56.70;;;;;;491728;241;965;-70
2021/08/05 08:26:48;;;;;;;;;;;22.80;56.70;;;;;;491729;241;1131;-69
2021/08/05 08:28:49;;;;;;;;;;;22.80;56.80;;;;;;491835;241;1035;-70
2021/08/05 08:30:51;;;;;;;;;;;22.80;56.90;;;;;;491749;241;1204;-70
2021/08/05 08:32:52;;;;;;;;;;;22.80;56.80;;;;;;491953;241;1156;-70
2021/08/05 08:34:53;;;;;;;;;;;22.70;56.90;;;;;;491802;241;1072;-70
2021/08/05 08:36:55;;;;;;;;;;;22.80;56.90;;;;;;491705;241;1134;-70
2021/08/05 08:38:58;;;;;;;;;;;22.70;57.10;;;;;;491877;241;1060;-71
2021/08/05 08:40:57;;;;;;;;;;;22.80;57.00;;;;;;491669;241;2184;-70
2021/08/05 08:42:58;;;;;;;;;;;22.80;56.90;;;;;;491788;241;1163;-70
2021/08/05 08:44:59;;;;;;;;;;;22.90;56.80;;;;;;491783;241;1088;-70
2021/08/05 08:47:01;;;;;;;;;;;22.90;56.70;;;;;;491810;241;1190;-70
2021/08/05 08:49:02;;;;;;;;;;;22.90;56.80;;;;;;491925;241;1097;-70
2021/08/05 08:51:03;;;;;;;;;;;22.80;56.90;;;;;;491784;241;1406;-70
2021/08/05 08:53:05;;;;;;;;;;;22.80;57.00;;;;;;491787;241;1195;-70
2021/08/05 08:55:06;;;;;;;;;;;22.70;57.00;;;;;;491741;241;1038;-70
2021/08/05 08:57:07;;;;;;;;;;;22.70;57.10;;;;;;491871;241;1092;-70
2021/08/05 08:59:09;;;;;;;;;;;22.80;57.20;;;;;;491854;241;1113;-70
2021/08/05 09:01:10;;;;;;;;;;;22.70;57.20;;;;;;491697;241;2191;-70
2021/08/05 09:03:11;;;;;;;;;;;22.70;57.20;;;;;;491949;241;1220;-70
2021/08/05 09:05:13;;;;;;;;;;;22.70;57.20;;;;;;491932;241;1122;-70
2021/08/05 09:07:14;;;;;;;;;;;22.70;57.30;;;;;;491870;241;1214;-70
2021/08/05 09:09:16;;;;;;;;;;;22.70;57.30;;;;;;491849;241;1040;-70
2021/08/05 09:11:17;;;;;;;;;;;22.70;57.30;;;;;;491755;241;1205;-70
2021/08/05 09:13:18;;;;;;;;;;;22.80;57.20;;;;;;491849;241;1122;-70
2021/08/05 09:15:19;;;;;;;;;;;22.80;57.00;;;;;;491862;241;1054;-70
2021/08/05 09:17:21;;;;;;;;;;;22.80;57.10;;;;;;491761;241;1346;-71
2021/08/05 09:19:23;;;;;;;;;;;22.70;57.20;;;;;;491782;241;970;-70
2021/08/05 09:21:24;;;;;;;;;;;22.80;57.10;;;;;;491742;242;2179;-70
2021/08/05 09:23:25;;;;;;;;;;;22.80;57.00;;;;;;491942;241;1225;-70
2021/08/05 09:25:26;;;;;;;;;;;22.80;57.30;;;;;;491794;241;1229;-69
2021/08/05 09:27:27;;;;;;;;;;;22.70;57.30;;;;;;492025;241;1208;-70
2021/08/05 09:29:29;;;;;;;;;;;22.70;57.30;;;;;;492055;241;1061;-69
2021/08/05 09:31:30;;;;;;;;;;;22.80;57.20;;;;;;492034;241;1155;-70
2021/08/05 09:33:31;;;;;;;;;;;22.80;57.10;;;;;;491933;241;1192;-70
2021/08/05 09:35:33;;;;;;;;;;;22.80;57.20;;;;;;491769;241;1248;-70
2021/08/05 09:37:34;;;;;;;;;;;22.80;57.30;;;;;;491828;241;1105;-70
2021/08/05 09:39:35;;;;;;;;;;;22.80;57.30;;;;;;491881;241;1038;-70
2021/08/05 09:41:37;;;;;;;;;;;22.80;57.30;;;;;;491782;241;2179;-70
2021/08/05 09:43:38;;;;;;;;;;;22.80;57.30;;;;;;492048;241;1033;-70
2021/08/05 09:45:39;;;;;;;;;;;22.80;57.10;;;;;;492116;241;837;-70
2021/08/05 09:47:41;;;;;;;;;;;22.90;57.10;;;;;;492151;241;1056;-70
2021/08/05 09:49:42;;;;;;;;;;;22.80;57.20;;;;;;492153;241;823;-70
2021/08/05 09:51:43;;;;;;;;;;;22.90;57.10;;;;;;492117;241;1145;-70
2021/08/05 09:53:45;;;;;;;;;;;22.80;57.20;;;;;;492028;241;1023;-70
2021/08/05 09:55:46;;;;;;;;;;;22.90;57.20;;;;;;492627;241;839;-70
2021/08/05 09:57:47;;;;;;;;;;;22.90;57.10;;;;;;492298;241;1071;-70
2021/08/05 09:59:49;;;;;;;;;;;22.90;57.10;;;;;;491790;241;1099;-70
2021/08/05 10:01:50;;;;;;;;;;;22.90;57.00;;;;;;491838;238;2192;-70
2021/08/05 10:03:51;;;;;;;;;;;22.90;57.00;;;;;;491868;241;1164;-70
2021/08/05 10:05:53;;;;;;;;;;;23.00;57.00;;;;;;491824;241;1223;-70
2021/08/05 10:07:54;;;;;;;;;;;23.10;56.90;;;;;;491641;241;1354;-70
2021/08/05 10:09:55;;;;;;;;;;;23.00;57.00;;;;;;491632;241;1177;-70
2021/08/05 10:11:57;;;;;;;;;;;22.90;57.10;;;;;;491867;241;1176;-70
2021/08/05 10:13:58;;;;;;;;;;;22.90;57.10;;;;;;492592;241;1264;-70
2021/08/05 10:15:59;;;;;;;;;;;23.00;57.10;;;;;;492744;241;1186;-70
2021/08/05 10:18:01;;;;;;;;;;;23.00;57.00;;;;;;492301;241;1073;-69
2021/08/05 10:20:02;;;;;;;;;;;23.20;56.50;;;;;;492758;241;1185;-70
2021/08/05 10:22:03;;;;;;;;;;;23.10;56.90;;;;;;492088;241;2121;-70
2021/08/05 10:24:07;;;;;;;;;;;23.00;56.80;;;;;;492045;241;1385;-70
2021/08/05 10:26:08;;;;;;;;;;;23.00;57.10;;;;;;491902;241;1562;-72
2021/08/05 10:28:10;;;;;;;;;;;23.10;57.00;;;;;;491994;241;1097;-70
2021/08/05 10:30:11;;;;;;;;;;;23.60;55.50;;;;;;491905;241;1153;-70
2021/08/05 10:32:13;;;;;;;;;;;24.00;54.60;;;;;;491908;241;1275;-70
2021/08/05 10:34:14;;;;;;;;;;;24.20;53.90;;;;;;491892;241;1218;-70
2021/08/05 10:36:15;;;;;;;;;;;24.60;53.00;;;;;;491785;241;1212;-70
2021/08/05 10:38:17;;;;;;;;;;;24.50;53.30;;;;;;491720;241;1096;-70
2021/08/05 10:40:18;;;;;;;;;;;24.50;52.90;;;;;;491723;241;1183;-70
2021/08/05 10:42:19;;;;;;;;;;;24.40;53.40;;;;;;491691;241;2135;-69
2021/08/05 10:44:21;;;;;;;;;;;24.30;53.10;;;;;;491752;241;1064;-69
2021/08/05 10:46:22;;;;;;;;;;;24.40;53.40;;;;;;491974;241;1124;-70
2021/08/05 10:48:23;;;;;;;;;;;24.50;53.00;;;;;;491468;241;1103;-70
2021/08/05 10:50:25;;;;;;;;;;;24.70;52.40;;;;;;491697;241;1177;-70
2021/08/05 10:52:26;;;;;;;;;;;24.70;52.40;;;;;;491808;241;1124;-70
2021/08/05 10:54:27;;;;;;;;;;;24.80;52.20;;;;;;491763;241;1205;-70
2021/08/05 10:56:30;;;;;;;;;;;24.80;52.10;;;;;;491923;241;1287;-70
2021/08/05 10:58:31;;;;;;;;;;;24.80;52.20;;;;;;491968;241;1047;-70
2021/08/05 11:00:32;;;;;;;;;;;24.80;52.20;;;;;;491888;241;2140;-70
2021/08/05 11:02:33;;;;;;;;;;;24.10;53.10;;;;;;491821;241;1190;-70
2021/08/05 11:04:35;;;;;;;;;;;24.60;52.70;;;;;;491838;241;1081;-70
2021/08/05 11:06:36;;;;;;;;;;;24.40;53.40;;;;;;491875;241;1193;-70
2021/08/05 11:08:37;;;;;;;;;;;24.30;53.30;;;;;;491880;241;1191;-70
2021/08/05 11:10:39;;;;;;;;;;;24.30;53.20;;;;;;491992;241;1337;-70
2021/08/05 11:12:40;;;;;;;;;;;24.40;52.90;;;;;;491849;241;1124;-70
2021/08/05 11:14:41;;;;;;;;;;;24.40;53.30;;;;;;491864;241;1132;-69
2021/08/05 11:16:42;;;;;;;;;;;24.10;53.40;;;;;;491787;241;1152;-70
2021/08/05 11:18:44;;;;;;;;;;;24.40;52.90;;;;;;491801;241;1140;-70
2021/08/05 11:20:45;;;;;;;;;;;24.40;53.20;;;;;;491725;241;2192;-70
2021/08/05 11:22:47;;;;;;;;;;;24.20;53.30;;;;;;491947;241;1110;-70
2021/08/05 11:24:48;;;;;;;;;;;24.50;52.80;;;;;;491790;241;985;-70
2021/08/05 11:26:49;;;;;;;;;;;24.30;53.30;;;;;;491762;241;1186;-70
2021/08/05 11:28:51;;;;;;;;;;;24.60;53.00;;;;;;491655;241;1086;-70
2021/08/05 11:30:52;;;;;;;;;;;24.30;53.00;;;;;;491753;241;1191;-70
2021/08/05 11:32:54;;;;;;;;;;;24.40;52.90;;;;;;491692;241;1193;-70
2021/08/05 11:34:55;;;;;;;;;;;24.10;53.20;;;;;;491602;241;1204;-70
2021/08/05 11:36:56;;;;;;;;;;;24.40;53.20;;;;;;491648;241;1123;-70
2021/08/05 11:38:57;;;;;;;;;;;24.90;52.00;;;;;;491794;241;1087;-70
2021/08/05 11:40:59;;;;;;;;;;;24.10;53.20;;;;;;491802;241;2207;-70
2021/08/05 11:43:00;;;;;;;;;;;24.60;52.50;;;;;;492002;241;1037;-70
2021/08/05 11:45:03;;;;;;;;;;;24.20;53.30;;;;;;491868;241;1006;-70
2021/08/05 11:47:03;;;;;;;;;;;24.00;53.50;;;;;;492012;242;1515;-70
2021/08/05 11:49:04;;;;;;;;;;;24.10;53.50;;;;;;491776;241;1171;-70
2021/08/05 11:51:05;;;;;;;;;;;24.60;52.90;;;;;;491899;241;1208;-70
2021/08/05 11:53:07;;;;;;;;;;;24.40;52.80;;;;;;491907;241;1173;-70
2021/08/05 11:55:08;;;;;;;;;;;24.70;52.10;;;;;;491729;241;1111;-70
2021/08/05 11:57:09;;;;;;;;;;;24.70;52.30;;;;;;491794;241;1533;-70